Hellvaering — LAMB — position and weather

sailwx.info

Track history (hours):
 
Tides and Currents Weather Stations Pressure Air Temp Water Temp Dewpoint Dewpoint Depression Visibility Wind Speed Wind Dir Waves Ship Positions

Hellvaering

Last reported at 2017-Nov-16 09:06 UTC. Time now 2017-Nov-22 20:33 UTC.
Position N 70°02' E 020°60'.

Length 21 m; draft 5 m.

Type: Fishing. MMSI: 257570500.

Date/timePositionNaut miles runAvg speedWind from/ knotsBaromVisibWave heightAir tempDewpointWater temp
2017-Nov-16 09:06N 70°02' E 020°60'0 1.6
2017-Nov-16 09:00N 70°02' E 020°60'1 1.0
2017-Nov-16 08:29N 70°02' E 021°01'1 2.2
2017-Nov-16 08:00N 70°02' E 020°58'0 0.1
2017-Nov-16 07:30N 70°02' E 020°59'0 0.0
2017-Nov-16 07:00N 70°02' E 020°58'0 0.0
2017-Nov-16 06:30N 70°02' E 020°58'0 0.0
2017-Nov-16 06:00N 70°02' E 020°58'0 0.0
2017-Nov-16 05:30N 70°02' E 020°58'0 0.0
2017-Nov-16 05:00N 70°02' E 020°58'0 0.0
2017-Nov-16 04:30N 70°02' E 020°58'0 0.0
2017-Nov-16 04:00N 70°02' E 020°58'0 0.0
2017-Nov-16 03:30N 70°02' E 020°58'0 0.0
2017-Nov-16 03:00N 70°02' E 020°58'0 0.0
2017-Nov-16 02:30N 70°02' E 020°59'0 0.0
2017-Nov-16 01:59N 70°02' E 020°58'0 0.0
2017-Nov-16 01:30N 70°02' E 020°58'0 0.0
2017-Nov-16 01:00N 70°02' E 020°58'0 0.0
2017-Nov-16 00:30N 70°02' E 020°59'0 0.0
2017-Nov-15 23:59N 70°02' E 020°58'0 0.0
2017-Nov-15 23:30N 70°02' E 020°58'0 0.0
2017-Nov-15 23:00N 70°02' E 020°58'0 0.0
2017-Nov-15 22:30N 70°02' E 020°58'0 0.0
2017-Nov-15 22:00N 70°02' E 020°58'0 0.0
2017-Nov-15 21:30N 70°02' E 020°58'0 0.0
2017-Nov-15 20:59N 70°02' E 020°59'0 0.0
2017-Nov-15 20:30N 70°02' E 020°58'0 0.0
2017-Nov-15 20:00N 70°02' E 020°59'0 0.0
2017-Nov-15 19:30N 70°02' E 020°59'0 0.0
2017-Nov-15 19:00N 70°02' E 020°59'0 0.0
2017-Nov-15 18:30N 70°02' E 020°59'0 0.0
2017-Nov-15 17:59N 70°02' E 020°59'0 0.0
2017-Nov-15 17:30N 70°02' E 020°59'0 0.0
2017-Nov-15 17:00N 70°02' E 020°59'0 0.0
2017-Nov-15 16:30N 70°02' E 020°59'0 0.0
2017-Nov-15 16:00N 70°02' E 020°58'0 0.0
2017-Nov-15 15:30N 70°02' E 020°59'0 0.0
2017-Nov-15 14:53N 70°02' E 020°58'2 4.5
2017-Nov-15 14:30N 70°03' E 021°01'4 7.8
2017-Nov-15 14:00N 70°07' E 020°58'4 7.8
2017-Nov-15 13:30N 70°10' E 020°50'1 1.1
2017-Nov-15 13:00N 70°09' E 020°49'0 0.4
2017-Nov-15 12:30N 70°09' E 020°49'1 1.4
2017-Nov-15 12:00N 70°09' E 020°48'1 1.2
2017-Nov-15 11:30N 70°09' E 020°48'0 0.1
2017-Nov-15 11:00N 70°09' E 020°48'4 7.9
2017-Nov-15 10:30N 70°13' E 020°48'4 8.1
2017-Nov-15 09:59N 70°15' E 020°36'3 7.0
2017-Nov-15 09:30N 70°12' E 020°30'0 0.6
2017-Nov-15 08:59N 70°12' E 020°31'0 0.0
2017-Nov-15 08:30N 70°12' E 020°31'0 0.0
2017-Nov-15 08:00N 70°12' E 020°31'1 1.5
2017-Nov-15 07:30N 70°13' E 020°30'3 6.5
2017-Nov-15 07:00N 70°15' E 020°37'3 6.7
2017-Nov-15 06:30N 70°17' E 020°44'3 6.6
2017-Nov-15 06:00N 70°19' E 020°53'3 6.9
2017-Nov-15 05:30N 70°20' E 021°02'4 7.1
2017-Nov-15 05:00N 70°22' E 021°12'3 5.7
2017-Nov-15 04:30N 70°23' E 021°19'0 0.3
2017-Nov-15 04:00N 70°23' E 021°20'0 0.4
2017-Nov-15 03:30N 70°23' E 021°20'0 0.6
2017-Nov-15 03:00N 70°23' E 021°21'0 0.8
2017-Nov-15 02:30N 70°23' E 021°22'2 4.3
2017-Nov-15 02:00N 70°25' E 021°25'2 5.0
2017-Nov-15 01:30N 70°26' E 021°32'1 1.1
2017-Nov-15 01:00N 70°26' E 021°30'2 3.9
2017-Nov-15 00:30N 70°25' E 021°25'2 4.3
2017-Nov-15 00:00N 70°26' E 021°32'4 7.2
2017-Nov-14 23:30N 70°28' E 021°40'4 7.8
2017-Nov-14 23:00N 70°30' E 021°50'3 5.8
2017-Nov-14 22:29N 70°32' E 021°56'4 8.4
2017-Nov-14 22:00N 70°36' E 021°52'4 7.8
2017-Nov-14 21:30N 70°40' E 021°51'4 8.2
2017-Nov-14 21:00N 70°43' E 021°57'4 8.4
2017-Nov-14 20:30N 70°47' E 022°03'4 7.0
2017-Nov-14 20:00N 70°49' E 022°10'1 2.6
2017-Nov-14 19:30N 70°51' E 022°12'2 4.5
2017-Nov-14 19:00N 70°52' E 022°18'4 7.3
2017-Nov-14 18:30N 70°55' E 022°24'3 6.4
2017-Nov-14 18:00N 70°58' E 022°24'3 5.7
2017-Nov-14 17:30N 70°59' E 022°32'3 7.0
2017-Nov-14 17:00N 71°00' E 022°42'4 7.1
2017-Nov-14 16:30N 71°01' E 022°53'3 5.4
2017-Nov-14 16:00N 71°02' E 023°00'3 5.8
2017-Nov-14 15:30N 71°02' E 023°09'2 3.3
2017-Nov-14 15:00N 71°03' E 023°05'3 5.0
2017-Nov-14 14:29N 71°02' E 023°13'1 2.7
2017-Nov-14 14:00N 71°04' E 023°14'1 1.2
2017-Nov-14 13:30N 71°03' E 023°13'2 4.3
2017-Nov-14 13:00N 71°03' E 023°19'3 6.7
2017-Nov-14 12:29N 71°05' E 023°28'3 6.7
2017-Nov-14 11:59N 71°07' E 023°37'3 7.0
2017-Nov-14 11:30N 71°08' E 023°47'2 4.4
2017-Nov-14 11:00N 71°09' E 023°53'1 1.4
2017-Nov-14 10:30N 71°09' E 023°51'1 2.1
2017-Nov-14 10:00N 71°09' E 023°48'1 2.2
2017-Nov-14 09:30N 71°08' E 023°45'0 0.2
2017-Nov-14 09:00N 71°08' E 023°45'1 2.1
2017-Nov-14 08:30N 71°09' E 023°47'3 6.2
2017-Nov-14 08:00N 71°06' E 023°52'4 7.2
2017-Nov-14 07:30N 71°04' E 024°01'0 0.0
2017-Nov-14 07:00N 71°04' E 024°01'0 0.0
2017-Nov-14 06:30N 71°04' E 024°01'0 0.0
2017-Nov-14 06:00N 71°04' E 024°01'0 0.0
2017-Nov-14 05:30N 71°04' E 024°01'0 0.0
2017-Nov-14 05:00N 71°04' E 024°01'0 0.0
2017-Nov-14 04:29N 71°04' E 024°01'0 0.0
2017-Nov-14 04:00N 71°04' E 024°01'0 0.0
2017-Nov-14 03:30N 71°04' E 024°01'0 0.0
2017-Nov-14 02:59N 71°04' E 024°01'0 0.0
2017-Nov-14 02:30N 71°04' E 024°01'0 0.0
2017-Nov-14 02:00N 71°04' E 024°01'0 0.0
2017-Nov-14 01:29N 71°04' E 024°01'0 0.1
2017-Nov-14 01:00N 71°04' E 024°01'3 5.7
2017-Nov-14 00:30N 71°06' E 023°55'2 4.8
2017-Nov-14 00:00N 71°08' E 023°50'1 1.1
2017-Nov-13 23:30N 71°08' E 023°49'1 2.2
2017-Nov-13 23:00N 71°07' E 023°47'1 1.5
2017-Nov-13 22:30N 71°07' E 023°44'0 0.7
2017-Nov-13 22:00N 71°07' E 023°45'23 1.2
2017-Nov-13 02:00N 70°43' E 023°49'0 0.0
2017-Nov-13 01:30N 70°43' E 023°49'0 0.0
2017-Nov-13 01:00N 70°43' E 023°49'0 0.0
2017-Nov-13 00:30N 70°43' E 023°49'0 0.0
2017-Nov-13 00:00N 70°43' E 023°49'0 0.0
2017-Nov-12 23:30N 70°43' E 023°49'0 0.0
2017-Nov-12 23:00N 70°43' E 023°49'0 0.0
2017-Nov-12 22:30N 70°43' E 023°49'0 0.0
2017-Nov-12 22:00N 70°43' E 023°49'0 0.0
2017-Nov-12 21:30N 70°43' E 023°49'0 0.0
2017-Nov-12 21:00N 70°43' E 023°49'0 0.0
2017-Nov-12 20:30N 70°43' E 023°49'0 0.0
2017-Nov-12 19:59N 70°43' E 023°49'0 0.0
2017-Nov-12 19:30N 70°43' E 023°49'0 0.0
2017-Nov-12 19:00N 70°43' E 023°49'0 0.0
2017-Nov-12 18:30N 70°43' E 023°49'0 0.0
2017-Nov-12 18:00N 70°43' E 023°49'0 0.0
2017-Nov-12 17:30N 70°43' E 023°49'0 0.0
2017-Nov-12 17:00N 70°43' E 023°49'0 0.0
2017-Nov-12 16:30N 70°43' E 023°49'3 5.5
2017-Nov-12 16:00N 70°46' E 023°50'4 8.3
2017-Nov-12 15:30N 70°50' E 023°49'4 7.9
2017-Nov-12 15:00N 70°54' E 023°48'4 7.8
2017-Nov-12 14:30N 70°58' E 023°47'4 7.9
2017-Nov-12 14:00N 71°02' E 023°46'4 7.9
2017-Nov-12 13:30N 71°06' E 023°45'3 5.2
2017-Nov-12 13:00N 71°09' E 023°45'2 4.9
2017-Nov-12 12:30N 71°11' E 023°48'1 1.1
2017-Nov-12 12:00N 71°10' E 023°48'1 1.3
2017-Nov-12 11:30N 71°10' E 023°46'1 2.1
2017-Nov-12 11:00N 71°09' E 023°44'0 0.4
2017-Nov-12 10:30N 71°09' E 023°43'1 2.9
2017-Nov-12 10:00N 71°08' E 023°47'1 1.3
2017-Nov-12 09:30N 71°08' E 023°49'3 6.4
2017-Nov-12 09:00N 71°11' E 023°56'1 1.3
2017-Nov-12 08:30N 71°10' E 023°54'1 2.2
2017-Nov-12 08:00N 71°09' E 023°52'1 2.1
2017-Nov-12 07:30N 71°09' E 023°49'1 2.3
2017-Nov-12 07:00N 71°08' E 023°46'1 1.8
2017-Nov-12 06:30N 71°08' E 023°48'4 8.3
2017-Nov-12 06:00N 71°05' E 023°57'2 3.7
2017-Nov-12 05:30N 71°04' E 024°01'0 0.0
2017-Nov-12 05:00N 71°04' E 024°01'0 0.0
2017-Nov-12 04:30N 71°04' E 024°01'0 0.0
2017-Nov-12 04:00N 71°04' E 024°01'0 0.0
2017-Nov-12 03:30N 71°04' E 024°01'0 0.0
2017-Nov-12 03:00N 71°04' E 024°01'0 0.0
2017-Nov-12 02:30N 71°04' E 024°01'0 0.0
2017-Nov-12 02:00N 71°04' E 024°01'0 0.0
2017-Nov-12 01:30N 71°04' E 024°01'0 0.0
2017-Nov-12 00:59N 71°04' E 024°01'0 0.0
2017-Nov-12 00:30N 71°04' E 024°01'0 0.0
2017-Nov-12 00:00N 71°04' E 024°01'0 0.0
2017-Nov-11 23:30N 71°04' E 024°01'0 0.0
2017-Nov-11 23:00N 71°04' E 024°01'0 0.0
2017-Nov-11 22:30N 71°04' E 024°01'0 0.0
2017-Nov-11 22:00N 71°04' E 024°01'0 0.1
2017-Nov-11 21:30N 71°04' E 024°01'3 5.9
2017-Nov-11 21:00N 71°06' E 023°55'4 7.3
2017-Nov-11 20:30N 71°08' E 023°46'1 1.8
2017-Nov-11 20:00N 71°09' E 023°48'1 1.6
2017-Nov-11 19:30N 71°08' E 023°46'0 0.7
2017-Nov-11 19:00N 71°08' E 023°45'0 0.7
2017-Nov-11 18:30N 71°08' E 023°45'0 0.9
2017-Nov-11 18:00N 71°07' E 023°44'0 0.1
2017-Nov-11 17:30N 71°07' E 023°44'1 2.8
2017-Nov-11 17:00N 71°09' E 023°46'0 0.9
2017-Nov-11 16:30N 71°09' E 023°46'1 1.0
2017-Nov-11 16:01N 71°08' E 023°45'0 0.3
2017-Nov-11 15:30N 71°08' E 023°46'0 0.2
2017-Nov-11 15:00N 71°08' E 023°46'0 0.3
2017-Nov-11 14:30N 71°08' E 023°45'0 0.9
2017-Nov-11 14:00N 71°09' E 023°46'0 0.1
2017-Nov-11 13:30N 71°09' E 023°46'1 1.5
2017-Nov-11 13:00N 71°08' E 023°45'2 3.0
2017-Nov-11 12:30N 71°09' E 023°49'2 3.1
2017-Nov-11 12:00N 71°10' E 023°53'0 0.6
2017-Nov-11 11:30N 71°10' E 023°52'0 0.6
2017-Nov-11 11:00N 71°09' E 023°52'0 0.9
2017-Nov-11 10:30N 71°09' E 023°51'1 2.0
2017-Nov-11 10:00N 71°09' E 023°48'1 1.9
2017-Nov-11 09:30N 71°08' E 023°45'1 1.1
2017-Nov-11 09:00N 71°08' E 023°47'2 4.5
2017-Nov-11 08:30N 71°09' E 023°53'1 1.3
2017-Nov-11 08:00N 71°09' E 023°51'1 1.4
2017-Nov-11 07:30N 71°09' E 023°49'1 2.0
2017-Nov-11 07:00N 71°08' E 023°47'1 1.5
2017-Nov-11 06:30N 71°08' E 023°45'0 0.9
2017-Nov-11 05:59N 71°08' E 023°44'1 2.7
2017-Nov-11 05:30N 71°06' E 023°42'4 8.2
2017-Nov-11 05:00N 71°03' E 023°39'4 8.1
2017-Nov-11 04:30N 70°58' E 023°38'4 7.9
2017-Nov-11 04:00N 70°55' E 023°37'4 7.8
2017-Nov-11 03:30N 70°51' E 023°36'4 7.7
2017-Nov-11 03:00N 70°47' E 023°34'4 8.0
2017-Nov-11 02:30N 70°43' E 023°33'3 6.8
2017-Nov-11 02:00N 70°40' E 023°36'1 2.8
2017-Nov-11 01:29N 70°40' E 023°40'0 0.0
2017-Nov-11 01:00N 70°40' E 023°40'0 0.0
2017-Nov-11 00:30N 70°40' E 023°40'0 0.0
2017-Nov-11 00:00N 70°40' E 023°40'0 0.0
2017-Nov-10 23:30N 70°40' E 023°40'0 0.0
2017-Nov-10 23:00N 70°40' E 023°40'0 0.0
2017-Nov-10 22:30N 70°40' E 023°40'0 0.0
2017-Nov-10 22:00N 70°40' E 023°40'0 0.0
2017-Nov-10 21:30N 70°40' E 023°40'0 0.0
2017-Nov-10 21:00N 70°40' E 023°40'0 0.0
2017-Nov-10 20:30N 70°40' E 023°40'0 0.0
2017-Nov-10 20:00N 70°40' E 023°40'0 0.0
2017-Nov-10 19:30N 70°40' E 023°40'0 0.0
2017-Nov-10 19:00N 70°40' E 023°40'0 0.0
2017-Nov-10 18:30N 70°40' E 023°40'0 0.0
2017-Nov-10 18:00N 70°40' E 023°40'0 0.0
2017-Nov-10 17:30N 70°40' E 023°40'0 0.0
2017-Nov-10 16:59N 70°40' E 023°40'0 0.0
2017-Nov-10 16:30N 70°40' E 023°40'0 0.0
2017-Nov-10 15:59N 70°40' E 023°40'0 0.0
2017-Nov-10 15:30N 70°40' E 023°40'0 0.0
2017-Nov-10 15:00N 70°40' E 023°40'0 0.0
2017-Nov-10 14:30N 70°40' E 023°40'0 0.0
2017-Nov-10 14:00N 70°40' E 023°40'0 0.0
2017-Nov-10 13:30N 70°40' E 023°40'2 4.2
2017-Nov-10 13:00N 70°38' E 023°38'1 1.4
2017-Nov-10 12:30N 70°38' E 023°40'0 0.0
2017-Nov-10 12:00N 70°38' E 023°40'3 5.1
2017-Nov-10 11:30N 70°39' E 023°33'3 6.7
2017-Nov-10 11:00N 70°43' E 023°34'4 7.7
2017-Nov-10 10:30N 70°46' E 023°42'3 5.6
2017-Nov-10 10:00N 70°44' E 023°49'1 1.3
2017-Nov-10 09:30N 70°43' E 023°49'0 0.0
2017-Nov-10 09:00N 70°43' E 023°49'0 0.0
2017-Nov-10 08:30N 70°43' E 023°49'0 0.0
2017-Nov-10 08:00N 70°43' E 023°49'0 0.0
2017-Nov-10 07:30N 70°43' E 023°49'0 0.0
2017-Nov-10 07:00N 70°43' E 023°49'0 0.0
2017-Nov-10 06:29N 70°43' E 023°49'0 0.0
2017-Nov-10 06:00N 70°43' E 023°49'0 0.0
2017-Nov-10 05:30N 70°43' E 023°49'0 0.0
2017-Nov-10 05:00N 70°43' E 023°49'0 0.0
2017-Nov-10 04:30N 70°43' E 023°49'0 0.0
2017-Nov-10 04:00N 70°43' E 023°49'0 0.0
2017-Nov-10 03:30N 70°43' E 023°49'0 0.0
2017-Nov-10 03:00N 70°43' E 023°49'0 0.0
2017-Nov-10 02:30N 70°43' E 023°49'0 0.0
2017-Nov-10 01:59N 70°43' E 023°49'0 0.0
2017-Nov-10 01:30N 70°43' E 023°49'0 0.0
2017-Nov-10 01:00N 70°43' E 023°49'0 0.0
2017-Nov-10 00:30N 70°43' E 023°49'0 0.0
2017-Nov-10 00:00N 70°43' E 023°49'0 0.0
2017-Nov-09 23:30N 70°43' E 023°49'0 0.0
2017-Nov-09 22:59N 70°43' E 023°49'0 0.0
2017-Nov-09 22:30N 70°43' E 023°49'0 0.0
2017-Nov-09 22:00N 70°43' E 023°49'0 0.0
2017-Nov-09 21:30N 70°43' E 023°49'0 0.0
2017-Nov-09 21:00N 70°43' E 023°49'0 0.0
2017-Nov-09 20:30N 70°43' E 023°49'0 0.0
2017-Nov-09 20:00N 70°43' E 023°49'0 0.0
2017-Nov-09 19:30N 70°43' E 023°49'0 0.1
2017-Nov-09 19:00N 70°43' E 023°49'4 7.0
2017-Nov-09 18:30N 70°47' E 023°50'3 6.8
2017-Nov-09 18:00N 70°50' E 023°49'3 6.2
2017-Nov-09 17:30N 70°53' E 023°47'3 5.8
2017-Nov-09 17:00N 70°56' E 023°46'3 6.1
2017-Nov-09 16:30N 70°59' E 023°47'4 7.1
2017-Nov-09 16:00N 71°03' E 023°49'3 6.4
2017-Nov-09 15:29N 71°06' E 023°47'2 5.0
2017-Nov-09 15:00N 71°08' E 023°42'2 4.5
2017-Nov-09 14:30N 71°08' E 023°49'2 4.3
2017-Nov-09 13:59N 71°10' E 023°51'0 0.3
2017-Nov-09 13:30N 71°10' E 023°51'0 1.0
2017-Nov-09 13:00N 71°10' E 023°51'1 1.1
2017-Nov-09 12:30N 71°09' E 023°51'1 1.8
2017-Nov-09 12:00N 71°09' E 023°49'1 2.2
2017-Nov-09 11:30N 71°08' E 023°46'1 1.2
2017-Nov-09 11:00N 71°09' E 023°47'1 2.9
2017-Nov-09 10:30N 71°10' E 023°48'0 1.0
2017-Nov-09 10:00N 71°10' E 023°49'1 1.0
2017-Nov-09 09:30N 71°09' E 023°50'1 1.7
2017-Nov-09 09:00N 71°09' E 023°48'1 2.0
2017-Nov-09 08:30N 71°08' E 023°45'1 1.6
2017-Nov-09 08:00N 71°09' E 023°48'1 1.9
2017-Nov-09 07:30N 71°08' E 023°45'2 3.3
2017-Nov-09 07:00N 71°09' E 023°49'0 0.7
2017-Nov-09 06:30N 71°09' E 023°48'0 1.0
2017-Nov-09 06:00N 71°09' E 023°47'1 1.5
2017-Nov-09 05:30N 71°08' E 023°46'0 0.7
2017-Nov-09 05:00N 71°08' E 023°45'2 3.4
2017-Nov-09 04:30N 71°07' E 023°49'3 6.7
2017-Nov-09 04:00N 71°05' E 023°56'2 3.4
2017-Nov-09 03:30N 71°04' E 024°01'0 0.1
2017-Nov-09 03:00N 71°04' E 024°01'0 0.0
2017-Nov-09 02:30N 71°04' E 024°01'0 0.0
2017-Nov-09 02:00N 71°04' E 024°01'0 0.0
2017-Nov-09 01:29N 71°04' E 024°01'0 0.0
2017-Nov-09 01:00N 71°04' E 024°01'0 0.0
2017-Nov-09 00:30N 71°04' E 024°01'0 0.0
2017-Nov-08 23:59N 71°04' E 024°01'0 0.0
2017-Nov-08 23:30N 71°04' E 024°01'0 0.0
2017-Nov-08 23:00N 71°04' E 024°01'0 0.0
2017-Nov-08 22:30N 71°04' E 024°01'0 0.0
2017-Nov-08 22:00N 71°04' E 024°01'0 0.0
2017-Nov-08 21:30N 71°04' E 024°01'0 0.0
2017-Nov-08 21:00N 71°04' E 024°01'0 0.0
2017-Nov-08 20:30N 71°04' E 024°01'0 0.0
2017-Nov-08 20:00N 71°04' E 024°01'0 0.1
2017-Nov-08 19:30N 71°04' E 024°01'2 3.3
2017-Nov-08 19:00N 71°05' E 023°57'2 3.8
2017-Nov-08 18:30N 71°07' E 023°55'2 4.3
2017-Nov-08 18:00N 71°09' E 023°56'1 1.8
2017-Nov-08 17:30N 71°09' E 023°54'1 1.9
2017-Nov-08 17:00N 71°09' E 023°51'1 1.5
2017-Nov-08 16:30N 71°09' E 023°48'1 2.0
2017-Nov-08 16:00N 71°08' E 023°46'1 1.6
2017-Nov-08 15:30N 71°08' E 023°43'0 0.9
2017-Nov-08 15:00N 71°08' E 023°44'0 0.9
2017-Nov-08 14:30N 71°08' E 023°43'2 3.4
2017-Nov-08 14:00N 71°09' E 023°47'0 1.0
2017-Nov-08 13:30N 71°09' E 023°45'0 0.9
2017-Nov-08 13:00N 71°08' E 023°46'0 0.4
2017-Nov-08 12:30N 71°08' E 023°46'0 0.6
2017-Nov-08 12:00N 71°08' E 023°46'2 4.5
2017-Nov-08 11:30N 71°10' E 023°42'1 2.0
2017-Nov-08 11:00N 71°09' E 023°42'2 3.8
2017-Nov-08 10:30N 71°09' E 023°48'0 0.8
2017-Nov-08 10:00N 71°09' E 023°47'0 0.8
2017-Nov-08 09:30N 71°08' E 023°47'0 0.6
2017-Nov-08 09:00N 71°08' E 023°46'0 0.7
2017-Nov-08 08:30N 71°08' E 023°45'1 1.3
2017-Nov-08 08:00N 71°07' E 023°44'1 1.2
2017-Nov-08 07:29N 71°07' E 023°42'1 1.2
2017-Nov-08 07:00N 71°07' E 023°44'1 1.9
2017-Nov-08 06:29N 71°08' E 023°46'2 4.1
2017-Nov-08 06:00N 71°07' E 023°41'2 4.7
2017-Nov-08 05:30N 71°08' E 023°47'2 4.4
2017-Nov-08 05:00N 71°06' E 023°43'2 4.4
2017-Nov-08 04:30N 71°07' E 023°48'2 4.2
2017-Nov-08 04:00N 71°07' E 023°42'2 4.7
2017-Nov-08 03:30N 71°06' E 023°48'2 4.0
2017-Nov-08 03:00N 71°07' E 023°43'2 4.4
2017-Nov-08 02:30N 71°05' E 023°40'4 8.2
2017-Nov-08 02:00N 71°01' E 023°39'4 8.2
2017-Nov-08 01:30N 70°57' E 023°37'4 8.3
2017-Nov-08 01:00N 70°53' E 023°36'4 8.4
2017-Nov-08 00:30N 70°49' E 023°35'4 7.9
2017-Nov-08 00:00N 70°45' E 023°33'4 7.9
2017-Nov-07 23:30N 70°41' E 023°32'3 5.5
2017-Nov-07 23:00N 70°40' E 023°40'0 0.7
2017-Nov-07 22:31N 70°40' E 023°39'0 0.9
2017-Nov-07 22:01N 70°39' E 023°39'1 1.0
2017-Nov-07 21:30N 70°40' E 023°40'0 0.7
2017-Nov-07 21:00N 70°40' E 023°40'0 0.0
2017-Nov-07 20:30N 70°40' E 023°40'0 0.0
2017-Nov-07 20:00N 70°40' E 023°40'0 0.0
2017-Nov-07 19:30N 70°40' E 023°40'0 0.0
2017-Nov-07 19:00N 70°40' E 023°40'0 0.0
2017-Nov-07 18:30N 70°40' E 023°40'0 0.0
2017-Nov-07 18:00N 70°40' E 023°40'0 0.0
2017-Nov-07 17:30N 70°40' E 023°40'0 0.0
2017-Nov-07 17:00N 70°40' E 023°40'0 0.0
2017-Nov-07 16:30N 70°40' E 023°40'0 0.0
2017-Nov-07 16:00N 70°40' E 023°40'0 0.0
2017-Nov-07 15:30N 70°40' E 023°40'0 0.0
2017-Nov-07 15:00N 70°40' E 023°40'0 0.0
2017-Nov-07 14:30N 70°40' E 023°40'0 0.0
2017-Nov-07 14:00N 70°40' E 023°40'0 0.0
2017-Nov-07 13:30N 70°40' E 023°40'0 0.0
2017-Nov-07 13:00N 70°40' E 023°40'0 0.0
2017-Nov-07 12:30N 70°40' E 023°40'0 0.0
2017-Nov-07 12:00N 70°40' E 023°40'0 0.0
2017-Nov-07 11:30N 70°40' E 023°40'0 0.0
2017-Nov-07 11:00N 70°40' E 023°40'0 0.0
2017-Nov-07 10:30N 70°40' E 023°40'0 0.0
2017-Nov-07 10:00N 70°40' E 023°40'0 0.0
2017-Nov-07 09:30N 70°40' E 023°40'0 0.0
2017-Nov-07 09:00N 70°40' E 023°40'0 0.0
2017-Nov-07 08:30N 70°40' E 023°40'0 0.0
2017-Nov-07 08:00N 70°40' E 023°40'0 0.0
2017-Nov-07 07:30N 70°40' E 023°40'0 0.0
2017-Nov-07 07:00N 70°40' E 023°40'0 0.0
2017-Nov-07 06:30N 70°40' E 023°40'0 0.0
2017-Nov-07 06:00N 70°40' E 023°40'0 0.0
2017-Nov-07 05:29N 70°40' E 023°40'0 0.0
2017-Nov-07 05:00N 70°40' E 023°40'0 0.0
2017-Nov-07 04:30N 70°40' E 023°40'0 0.0
2017-Nov-07 04:00N 70°40' E 023°40'0 0.0
2017-Nov-07 03:30N 70°40' E 023°40'0 0.0
2017-Nov-07 03:00N 70°40' E 023°40'0 0.0
2017-Nov-07 02:30N 70°40' E 023°40'0 0.0
2017-Nov-07 02:00N 70°40' E 023°40'0 0.0
2017-Nov-07 01:30N 70°40' E 023°40'0 0.0
2017-Nov-07 01:00N 70°40' E 023°40'0 0.0
2017-Nov-07 00:30N 70°40' E 023°40'0 0.0
2017-Nov-07 00:00N 70°40' E 023°40'0 0.0
2017-Nov-06 23:30N 70°40' E 023°40'0 0.0
2017-Nov-06 23:00N 70°40' E 023°40'0 0.0
2017-Nov-06 22:29N 70°40' E 023°40'0 0.0
2017-Nov-06 22:00N 70°40' E 023°40'0 0.0
2017-Nov-06 21:30N 70°40' E 023°40'0 0.0
2017-Nov-06 21:00N 70°40' E 023°40'0 0.0
2017-Nov-06 20:30N 70°40' E 023°40'  
Track history (hours):
 
Tides and Currents Weather Stations Pressure Air Temp Water Temp Dewpoint Dewpoint Depression Visibility Wind Speed Wind Dir Waves Ship Positions

Hellvaering

Last reported at 2017-Nov-16 09:06 UTC. Time now 2017-Nov-22 20:33 UTC.
Position N 70°02' E 020°60'.

Length 21 m; draft 5 m.

Type: Fishing. MMSI: 257570500.

Date/timePositionNaut miles runAvg speedWind from/ knotsBaromVisibWave heightAir tempDewpointWater temp
2017-Nov-16 09:06N 70°02' E 020°60'0 1.6
2017-Nov-16 09:00N 70°02' E 020°60'1 1.0
2017-Nov-16 08:29N 70°02' E 021°01'1 2.2
2017-Nov-16 08:00N 70°02' E 020°58'0 0.1
2017-Nov-16 07:30N 70°02' E 020°59'0 0.0
2017-Nov-16 07:00N 70°02' E 020°58'0 0.0
2017-Nov-16 06:30N 70°02' E 020°58'0 0.0
2017-Nov-16 06:00N 70°02' E 020°58'0 0.0
2017-Nov-16 05:30N 70°02' E 020°58'0 0.0
2017-Nov-16 05:00N 70°02' E 020°58'0 0.0
2017-Nov-16 04:30N 70°02' E 020°58'0 0.0
2017-Nov-16 04:00N 70°02' E 020°58'0 0.0
2017-Nov-16 03:30N 70°02' E 020°58'0 0.0
2017-Nov-16 03:00N 70°02' E 020°58'0 0.0
2017-Nov-16 02:30N 70°02' E 020°59'0 0.0
2017-Nov-16 01:59N 70°02' E 020°58'0 0.0
2017-Nov-16 01:30N 70°02' E 020°58'0 0.0
2017-Nov-16 01:00N 70°02' E 020°58'0 0.0
2017-Nov-16 00:30N 70°02' E 020°59'0 0.0
2017-Nov-15 23:59N 70°02' E 020°58'0 0.0
2017-Nov-15 23:30N 70°02' E 020°58'0 0.0
2017-Nov-15 23:00N 70°02' E 020°58'0 0.0
2017-Nov-15 22:30N 70°02' E 020°58'0 0.0
2017-Nov-15 22:00N 70°02' E 020°58'0 0.0
2017-Nov-15 21:30N 70°02' E 020°58'0 0.0
2017-Nov-15 20:59N 70°02' E 020°59'0 0.0
2017-Nov-15 20:30N 70°02' E 020°58'0 0.0
2017-Nov-15 20:00N 70°02' E 020°59'0 0.0
2017-Nov-15 19:30N 70°02' E 020°59'0 0.0
2017-Nov-15 19:00N 70°02' E 020°59'0 0.0
2017-Nov-15 18:30N 70°02' E 020°59'0 0.0
2017-Nov-15 17:59N 70°02' E 020°59'0 0.0
2017-Nov-15 17:30N 70°02' E 020°59'0 0.0
2017-Nov-15 17:00N 70°02' E 020°59'0 0.0
2017-Nov-15 16:30N 70°02' E 020°59'0 0.0
2017-Nov-15 16:00N 70°02' E 020°58'0 0.0
2017-Nov-15 15:30N 70°02' E 020°59'0 0.0
2017-Nov-15 14:53N 70°02' E 020°58'2 4.5
2017-Nov-15 14:30N 70°03' E 021°01'4 7.8
2017-Nov-15 14:00N 70°07' E 020°58'4 7.8
2017-Nov-15 13:30N 70°10' E 020°50'1 1.1
2017-Nov-15 13:00N 70°09' E 020°49'0 0.4
2017-Nov-15 12:30N 70°09' E 020°49'1 1.4
2017-Nov-15 12:00N 70°09' E 020°48'1 1.2
2017-Nov-15 11:30N 70°09' E 020°48'0 0.1
2017-Nov-15 11:00N 70°09' E 020°48'4 7.9
2017-Nov-15 10:30N 70°13' E 020°48'4 8.1
2017-Nov-15 09:59N 70°15' E 020°36'3 7.0
2017-Nov-15 09:30N 70°12' E 020°30'0 0.6
2017-Nov-15 08:59N 70°12' E 020°31'0 0.0
2017-Nov-15 08:30N 70°12' E 020°31'0 0.0
2017-Nov-15 08:00N 70°12' E 020°31'1 1.5
2017-Nov-15 07:30N 70°13' E 020°30'3 6.5
2017-Nov-15 07:00N 70°15' E 020°37'3 6.7
2017-Nov-15 06:30N 70°17' E 020°44'3 6.6
2017-Nov-15 06:00N 70°19' E 020°53'3 6.9
2017-Nov-15 05:30N 70°20' E 021°02'4 7.1
2017-Nov-15 05:00N 70°22' E 021°12'3 5.7
2017-Nov-15 04:30N 70°23' E 021°19'0 0.3
2017-Nov-15 04:00N 70°23' E 021°20'0 0.4
2017-Nov-15 03:30N 70°23' E 021°20'0 0.6
2017-Nov-15 03:00N 70°23' E 021°21'0 0.8
2017-Nov-15 02:30N 70°23' E 021°22'2 4.3
2017-Nov-15 02:00N 70°25' E 021°25'2 5.0
2017-Nov-15 01:30N 70°26' E 021°32'1 1.1
2017-Nov-15 01:00N 70°26' E 021°30'2 3.9
2017-Nov-15 00:30N 70°25' E 021°25'2 4.3
2017-Nov-15 00:00N 70°26' E 021°32'4 7.2
2017-Nov-14 23:30N 70°28' E 021°40'4 7.8
2017-Nov-14 23:00N 70°30' E 021°50'3 5.8
2017-Nov-14 22:29N 70°32' E 021°56'4 8.4
2017-Nov-14 22:00N 70°36' E 021°52'4 7.8
2017-Nov-14 21:30N 70°40' E 021°51'4 8.2
2017-Nov-14 21:00N 70°43' E 021°57'4 8.4
2017-Nov-14 20:30N 70°47' E 022°03'4 7.0
2017-Nov-14 20:00N 70°49' E 022°10'1 2.6
2017-Nov-14 19:30N 70°51' E 022°12'2 4.5
2017-Nov-14 19:00N 70°52' E 022°18'4 7.3
2017-Nov-14 18:30N 70°55' E 022°24'3 6.4
2017-Nov-14 18:00N 70°58' E 022°24'3 5.7
2017-Nov-14 17:30N 70°59' E 022°32'3 7.0
2017-Nov-14 17:00N 71°00' E 022°42'4 7.1
2017-Nov-14 16:30N 71°01' E 022°53'3 5.4
2017-Nov-14 16:00N 71°02' E 023°00'3 5.8
2017-Nov-14 15:30N 71°02' E 023°09'2 3.3
2017-Nov-14 15:00N 71°03' E 023°05'3 5.0
2017-Nov-14 14:29N 71°02' E 023°13'1 2.7
2017-Nov-14 14:00N 71°04' E 023°14'1 1.2
2017-Nov-14 13:30N 71°03' E 023°13'2 4.3
2017-Nov-14 13:00N 71°03' E 023°19'3 6.7
2017-Nov-14 12:29N 71°05' E 023°28'3 6.7
2017-Nov-14 11:59N 71°07' E 023°37'3 7.0
2017-Nov-14 11:30N 71°08' E 023°47'2 4.4
2017-Nov-14 11:00N 71°09' E 023°53'1 1.4
2017-Nov-14 10:30N 71°09' E 023°51'1 2.1
2017-Nov-14 10:00N 71°09' E 023°48'1 2.2
2017-Nov-14 09:30N 71°08' E 023°45'0 0.2
2017-Nov-14 09:00N 71°08' E 023°45'1 2.1
2017-Nov-14 08:30N 71°09' E 023°47'3 6.2
2017-Nov-14 08:00N 71°06' E 023°52'4 7.2
2017-Nov-14 07:30N 71°04' E 024°01'0 0.0
2017-Nov-14 07:00N 71°04' E 024°01'0 0.0
2017-Nov-14 06:30N 71°04' E 024°01'0 0.0
2017-Nov-14 06:00N 71°04' E 024°01'0 0.0
2017-Nov-14 05:30N 71°04' E 024°01'0 0.0
2017-Nov-14 05:00N 71°04' E 024°01'0 0.0
2017-Nov-14 04:29N 71°04' E 024°01'0 0.0
2017-Nov-14 04:00N 71°04' E 024°01'0 0.0
2017-Nov-14 03:30N 71°04' E 024°01'0 0.0
2017-Nov-14 02:59N 71°04' E 024°01'0 0.0
2017-Nov-14 02:30N 71°04' E 024°01'0 0.0
2017-Nov-14 02:00N 71°04' E 024°01'0 0.0
2017-Nov-14 01:29N 71°04' E 024°01'0 0.1
2017-Nov-14 01:00N 71°04' E 024°01'3 5.7
2017-Nov-14 00:30N 71°06' E 023°55'2 4.8
2017-Nov-14 00:00N 71°08' E 023°50'1 1.1
2017-Nov-13 23:30N 71°08' E 023°49'1 2.2
2017-Nov-13 23:00N 71°07' E 023°47'1 1.5
2017-Nov-13 22:30N 71°07' E 023°44'0 0.7
2017-Nov-13 22:00N 71°07' E 023°45'23 1.2
2017-Nov-13 02:00N 70°43' E 023°49'0 0.0
2017-Nov-13 01:30N 70°43' E 023°49'0 0.0
2017-Nov-13 01:00N 70°43' E 023°49'0 0.0
2017-Nov-13 00:30N 70°43' E 023°49'0 0.0
2017-Nov-13 00:00N 70°43' E 023°49'0 0.0
2017-Nov-12 23:30N 70°43' E 023°49'0 0.0
2017-Nov-12 23:00N 70°43' E 023°49'0 0.0
2017-Nov-12 22:30N 70°43' E 023°49'0 0.0
2017-Nov-12 22:00N 70°43' E 023°49'0 0.0
2017-Nov-12 21:30N 70°43' E 023°49'0 0.0
2017-Nov-12 21:00N 70°43' E 023°49'0 0.0
2017-Nov-12 20:30N 70°43' E 023°49'0 0.0
2017-Nov-12 19:59N 70°43' E 023°49'0 0.0
2017-Nov-12 19:30N 70°43' E 023°49'0 0.0
2017-Nov-12 19:00N 70°43' E 023°49'0 0.0
2017-Nov-12 18:30N 70°43' E 023°49'0 0.0
2017-Nov-12 18:00N 70°43' E 023°49'0 0.0
2017-Nov-12 17:30N 70°43' E 023°49'0 0.0
2017-Nov-12 17:00N 70°43' E 023°49'0 0.0
2017-Nov-12 16:30N 70°43' E 023°49'3 5.5
2017-Nov-12 16:00N 70°46' E 023°50'4 8.3
2017-Nov-12 15:30N 70°50' E 023°49'4 7.9
2017-Nov-12 15:00N 70°54' E 023°48'4 7.8
2017-Nov-12 14:30N 70°58' E 023°47'4 7.9
2017-Nov-12 14:00N 71°02' E 023°46'4 7.9
2017-Nov-12 13:30N 71°06' E 023°45'3 5.2
2017-Nov-12 13:00N 71°09' E 023°45'2 4.9
2017-Nov-12 12:30N 71°11' E 023°48'1 1.1
2017-Nov-12 12:00N 71°10' E 023°48'1 1.3
2017-Nov-12 11:30N 71°10' E 023°46'1 2.1
2017-Nov-12 11:00N 71°09' E 023°44'0 0.4
2017-Nov-12 10:30N 71°09' E 023°43'1 2.9
2017-Nov-12 10:00N 71°08' E 023°47'1 1.3
2017-Nov-12 09:30N 71°08' E 023°49'3 6.4
2017-Nov-12 09:00N 71°11' E 023°56'1 1.3
2017-Nov-12 08:30N 71°10' E 023°54'1 2.2
2017-Nov-12 08:00N 71°09' E 023°52'1 2.1
2017-Nov-12 07:30N 71°09' E 023°49'1 2.3
2017-Nov-12 07:00N 71°08' E 023°46'1 1.8
2017-Nov-12 06:30N 71°08' E 023°48'4 8.3
2017-Nov-12 06:00N 71°05' E 023°57'2 3.7
2017-Nov-12 05:30N 71°04' E 024°01'0 0.0
2017-Nov-12 05:00N 71°04' E 024°01'0 0.0
2017-Nov-12 04:30N 71°04' E 024°01'0 0.0
2017-Nov-12 04:00N 71°04' E 024°01'0 0.0
2017-Nov-12 03:30N 71°04' E 024°01'0 0.0
2017-Nov-12 03:00N 71°04' E 024°01'0 0.0
2017-Nov-12 02:30N 71°04' E 024°01'0 0.0
2017-Nov-12 02:00N 71°04' E 024°01'0 0.0
2017-Nov-12 01:30N 71°04' E 024°01'0 0.0
2017-Nov-12 00:59N 71°04' E 024°01'0 0.0
2017-Nov-12 00:30N 71°04' E 024°01'0 0.0
2017-Nov-12 00:00N 71°04' E 024°01'0 0.0
2017-Nov-11 23:30N 71°04' E 024°01'0 0.0
2017-Nov-11 23:00N 71°04' E 024°01'0 0.0
2017-Nov-11 22:30N 71°04' E 024°01'0 0.0
2017-Nov-11 22:00N 71°04' E 024°01'0 0.1
2017-Nov-11 21:30N 71°04' E 024°01'3 5.9
2017-Nov-11 21:00N 71°06' E 023°55'4 7.3
2017-Nov-11 20:30N 71°08' E 023°46'1 1.8
2017-Nov-11 20:00N 71°09' E 023°48'1 1.6
2017-Nov-11 19:30N 71°08' E 023°46'0 0.7
2017-Nov-11 19:00N 71°08' E 023°45'0 0.7
2017-Nov-11 18:30N 71°08' E 023°45'0 0.9
2017-Nov-11 18:00N 71°07' E 023°44'0 0.1
2017-Nov-11 17:30N 71°07' E 023°44'1 2.8
2017-Nov-11 17:00N 71°09' E 023°46'0 0.9
2017-Nov-11 16:30N 71°09' E 023°46'1 1.0
2017-Nov-11 16:01N 71°08' E 023°45'0 0.3
2017-Nov-11 15:30N 71°08' E 023°46'0 0.2
2017-Nov-11 15:00N 71°08' E 023°46'0 0.3
2017-Nov-11 14:30N 71°08' E 023°45'0 0.9
2017-Nov-11 14:00N 71°09' E 023°46'0 0.1
2017-Nov-11 13:30N 71°09' E 023°46'1 1.5
2017-Nov-11 13:00N 71°08' E 023°45'2 3.0
2017-Nov-11 12:30N 71°09' E 023°49'2 3.1
2017-Nov-11 12:00N 71°10' E 023°53'0 0.6
2017-Nov-11 11:30N 71°10' E 023°52'0 0.6
2017-Nov-11 11:00N 71°09' E 023°52'0 0.9
2017-Nov-11 10:30N 71°09' E 023°51'1 2.0
2017-Nov-11 10:00N 71°09' E 023°48'1 1.9
2017-Nov-11 09:30N 71°08' E 023°45'1 1.1
2017-Nov-11 09:00N 71°08' E 023°47'2 4.5
2017-Nov-11 08:30N 71°09' E 023°53'1 1.3
2017-Nov-11 08:00N 71°09' E 023°51'1 1.4
2017-Nov-11 07:30N 71°09' E 023°49'1 2.0
2017-Nov-11 07:00N 71°08' E 023°47'1 1.5
2017-Nov-11 06:30N 71°08' E 023°45'0 0.9
2017-Nov-11 05:59N 71°08' E 023°44'1 2.7
2017-Nov-11 05:30N 71°06' E 023°42'4 8.2
2017-Nov-11 05:00N 71°03' E 023°39'4 8.1
2017-Nov-11 04:30N 70°58' E 023°38'4 7.9
2017-Nov-11 04:00N 70°55' E 023°37'4 7.8
2017-Nov-11 03:30N 70°51' E 023°36'4 7.7
2017-Nov-11 03:00N 70°47' E 023°34'4 8.0
2017-Nov-11 02:30N 70°43' E 023°33'3 6.8
2017-Nov-11 02:00N 70°40' E 023°36'1 2.8
2017-Nov-11 01:29N 70°40' E 023°40'0 0.0
2017-Nov-11 01:00N 70°40' E 023°40'0 0.0
2017-Nov-11 00:30N 70°40' E 023°40'0 0.0
2017-Nov-11 00:00N 70°40' E 023°40'0 0.0
2017-Nov-10 23:30N 70°40' E 023°40'0 0.0
2017-Nov-10 23:00N 70°40' E 023°40'0 0.0
2017-Nov-10 22:30N 70°40' E 023°40'0 0.0
2017-Nov-10 22:00N 70°40' E 023°40'0 0.0
2017-Nov-10 21:30N 70°40' E 023°40'0 0.0
2017-Nov-10 21:00N 70°40' E 023°40'0 0.0
2017-Nov-10 20:30N 70°40' E 023°40'0 0.0
2017-Nov-10 20:00N 70°40' E 023°40'0 0.0
2017-Nov-10 19:30N 70°40' E 023°40'0 0.0
2017-Nov-10 19:00N 70°40' E 023°40'0 0.0
2017-Nov-10 18:30N 70°40' E 023°40'0 0.0
2017-Nov-10 18:00N 70°40' E 023°40'0 0.0
2017-Nov-10 17:30N 70°40' E 023°40'0 0.0
2017-Nov-10 16:59N 70°40' E 023°40'0 0.0
2017-Nov-10 16:30N 70°40' E 023°40'0 0.0
2017-Nov-10 15:59N 70°40' E 023°40'0 0.0
2017-Nov-10 15:30N 70°40' E 023°40'0 0.0
2017-Nov-10 15:00N 70°40' E 023°40'0 0.0
2017-Nov-10 14:30N 70°40' E 023°40'0 0.0
2017-Nov-10 14:00N 70°40' E 023°40'0 0.0
2017-Nov-10 13:30N 70°40' E 023°40'2 4.2
2017-Nov-10 13:00N 70°38' E 023°38'1 1.4
2017-Nov-10 12:30N 70°38' E 023°40'0 0.0
2017-Nov-10 12:00N 70°38' E 023°40'3 5.1
2017-Nov-10 11:30N 70°39' E 023°33'3 6.7
2017-Nov-10 11:00N 70°43' E 023°34'4 7.7
2017-Nov-10 10:30N 70°46' E 023°42'3 5.6
2017-Nov-10 10:00N 70°44' E 023°49'1 1.3
2017-Nov-10 09:30N 70°43' E 023°49'0 0.0
2017-Nov-10 09:00N 70°43' E 023°49'0 0.0
2017-Nov-10 08:30N 70°43' E 023°49'0 0.0
2017-Nov-10 08:00N 70°43' E 023°49'0 0.0
2017-Nov-10 07:30N 70°43' E 023°49'0 0.0
2017-Nov-10 07:00N 70°43' E 023°49'0 0.0
2017-Nov-10 06:29N 70°43' E 023°49'0 0.0
2017-Nov-10 06:00N 70°43' E 023°49'0 0.0
2017-Nov-10 05:30N 70°43' E 023°49'0 0.0
2017-Nov-10 05:00N 70°43' E 023°49'0 0.0
2017-Nov-10 04:30N 70°43' E 023°49'0 0.0
2017-Nov-10 04:00N 70°43' E 023°49'0 0.0
2017-Nov-10 03:30N 70°43' E 023°49'0 0.0
2017-Nov-10 03:00N 70°43' E 023°49'0 0.0
2017-Nov-10 02:30N 70°43' E 023°49'0 0.0
2017-Nov-10 01:59N 70°43' E 023°49'0 0.0
2017-Nov-10 01:30N 70°43' E 023°49'0 0.0
2017-Nov-10 01:00N 70°43' E 023°49'0 0.0
2017-Nov-10 00:30N 70°43' E 023°49'0 0.0
2017-Nov-10 00:00N 70°43' E 023°49'0 0.0
2017-Nov-09 23:30N 70°43' E 023°49'0 0.0
2017-Nov-09 22:59N 70°43' E 023°49'0 0.0
2017-Nov-09 22:30N 70°43' E 023°49'0 0.0
2017-Nov-09 22:00N 70°43' E 023°49'0 0.0
2017-Nov-09 21:30N 70°43' E 023°49'0 0.0
2017-Nov-09 21:00N 70°43' E 023°49'0 0.0
2017-Nov-09 20:30N 70°43' E 023°49'0 0.0
2017-Nov-09 20:00N 70°43' E 023°49'0 0.0
2017-Nov-09 19:30N 70°43' E 023°49'0 0.1
2017-Nov-09 19:00N 70°43' E 023°49'4 7.0
2017-Nov-09 18:30N 70°47' E 023°50'3 6.8
2017-Nov-09 18:00N 70°50' E 023°49'3 6.2
2017-Nov-09 17:30N 70°53' E 023°47'3 5.8
2017-Nov-09 17:00N 70°56' E 023°46'3 6.1
2017-Nov-09 16:30N 70°59' E 023°47'4 7.1
2017-Nov-09 16:00N 71°03' E 023°49'3 6.4
2017-Nov-09 15:29N 71°06' E 023°47'2 5.0
2017-Nov-09 15:00N 71°08' E 023°42'2 4.5
2017-Nov-09 14:30N 71°08' E 023°49'2 4.3
2017-Nov-09 13:59N 71°10' E 023°51'0 0.3
2017-Nov-09 13:30N 71°10' E 023°51'0 1.0
2017-Nov-09 13:00N 71°10' E 023°51'1 1.1
2017-Nov-09 12:30N 71°09' E 023°51'1 1.8
2017-Nov-09 12:00N 71°09' E 023°49'1 2.2
2017-Nov-09 11:30N 71°08' E 023°46'1 1.2
2017-Nov-09 11:00N 71°09' E 023°47'1 2.9
2017-Nov-09 10:30N 71°10' E 023°48'0 1.0
2017-Nov-09 10:00N 71°10' E 023°49'1 1.0
2017-Nov-09 09:30N 71°09' E 023°50'1 1.7
2017-Nov-09 09:00N 71°09' E 023°48'1 2.0
2017-Nov-09 08:30N 71°08' E 023°45'1 1.6
2017-Nov-09 08:00N 71°09' E 023°48'1 1.9
2017-Nov-09 07:30N 71°08' E 023°45'2 3.3
2017-Nov-09 07:00N 71°09' E 023°49'0 0.7
2017-Nov-09 06:30N 71°09' E 023°48'0 1.0
2017-Nov-09 06:00N 71°09' E 023°47'1 1.5
2017-Nov-09 05:30N 71°08' E 023°46'0 0.7
2017-Nov-09 05:00N 71°08' E 023°45'2 3.4
2017-Nov-09 04:30N 71°07' E 023°49'3 6.7
2017-Nov-09 04:00N 71°05' E 023°56'2 3.4
2017-Nov-09 03:30N 71°04' E 024°01'0 0.1
2017-Nov-09 03:00N 71°04' E 024°01'0 0.0
2017-Nov-09 02:30N 71°04' E 024°01'0 0.0
2017-Nov-09 02:00N 71°04' E 024°01'0 0.0
2017-Nov-09 01:29N 71°04' E 024°01'0 0.0
2017-Nov-09 01:00N 71°04' E 024°01'0 0.0
2017-Nov-09 00:30N 71°04' E 024°01'0 0.0
2017-Nov-08 23:59N 71°04' E 024°01'0 0.0
2017-Nov-08 23:30N 71°04' E 024°01'0 0.0
2017-Nov-08 23:00N 71°04' E 024°01'0 0.0
2017-Nov-08 22:30N 71°04' E 024°01'0 0.0
2017-Nov-08 22:00N 71°04' E 024°01'0 0.0
2017-Nov-08 21:30N 71°04' E 024°01'0 0.0
2017-Nov-08 21:00N 71°04' E 024°01'0 0.0
2017-Nov-08 20:30N 71°04' E 024°01'0 0.0
2017-Nov-08 20:00N 71°04' E 024°01'0 0.1
2017-Nov-08 19:30N 71°04' E 024°01'2 3.3
2017-Nov-08 19:00N 71°05' E 023°57'2 3.8
2017-Nov-08 18:30N 71°07' E 023°55'2 4.3
2017-Nov-08 18:00N 71°09' E 023°56'1 1.8
2017-Nov-08 17:30N 71°09' E 023°54'1 1.9
2017-Nov-08 17:00N 71°09' E 023°51'1 1.5
2017-Nov-08 16:30N 71°09' E 023°48'1 2.0
2017-Nov-08 16:00N 71°08' E 023°46'1 1.6
2017-Nov-08 15:30N 71°08' E 023°43'0 0.9
2017-Nov-08 15:00N 71°08' E 023°44'0 0.9
2017-Nov-08 14:30N 71°08' E 023°43'2 3.4
2017-Nov-08 14:00N 71°09' E 023°47'0 1.0
2017-Nov-08 13:30N 71°09' E 023°45'0 0.9
2017-Nov-08 13:00N 71°08' E 023°46'0 0.4
2017-Nov-08 12:30N 71°08' E 023°46'0 0.6
2017-Nov-08 12:00N 71°08' E 023°46'2 4.5
2017-Nov-08 11:30N 71°10' E 023°42'1 2.0
2017-Nov-08 11:00N 71°09' E 023°42'2 3.8
2017-Nov-08 10:30N 71°09' E 023°48'0 0.8
2017-Nov-08 10:00N 71°09' E 023°47'0 0.8
2017-Nov-08 09:30N 71°08' E 023°47'0 0.6
2017-Nov-08 09:00N 71°08' E 023°46'0 0.7
2017-Nov-08 08:30N 71°08' E 023°45'1 1.3
2017-Nov-08 08:00N 71°07' E 023°44'1 1.2
2017-Nov-08 07:29N 71°07' E 023°42'1 1.2
2017-Nov-08 07:00N 71°07' E 023°44'1 1.9
2017-Nov-08 06:29N 71°08' E 023°46'2 4.1
2017-Nov-08 06:00N 71°07' E 023°41'2 4.7
2017-Nov-08 05:30N 71°08' E 023°47'2 4.4
2017-Nov-08 05:00N 71°06' E 023°43'2 4.4
2017-Nov-08 04:30N 71°07' E 023°48'2 4.2
2017-Nov-08 04:00N 71°07' E 023°42'2 4.7
2017-Nov-08 03:30N 71°06' E 023°48'2 4.0
2017-Nov-08 03:00N 71°07' E 023°43'2 4.4
2017-Nov-08 02:30N 71°05' E 023°40'4 8.2
2017-Nov-08 02:00N 71°01' E 023°39'4 8.2
2017-Nov-08 01:30N 70°57' E 023°37'4 8.3
2017-Nov-08 01:00N 70°53' E 023°36'4 8.4
2017-Nov-08 00:30N 70°49' E 023°35'4 7.9
2017-Nov-08 00:00N 70°45' E 023°33'4 7.9
2017-Nov-07 23:30N 70°41' E 023°32'3 5.5
2017-Nov-07 23:00N 70°40' E 023°40'0 0.7
2017-Nov-07 22:31N 70°40' E 023°39'0 0.9
2017-Nov-07 22:01N 70°39' E 023°39'1 1.0
2017-Nov-07 21:30N 70°40' E 023°40'0 0.7
2017-Nov-07 21:00N 70°40' E 023°40'0 0.0
2017-Nov-07 20:30N 70°40' E 023°40'0 0.0
2017-Nov-07 20:00N 70°40' E 023°40'0 0.0
2017-Nov-07 19:30N 70°40' E 023°40'0 0.0
2017-Nov-07 19:00N 70°40' E 023°40'0 0.0
2017-Nov-07 18:30N 70°40' E 023°40'0 0.0
2017-Nov-07 18:00N 70°40' E 023°40'0 0.0
2017-Nov-07 17:30N 70°40' E 023°40'0 0.0
2017-Nov-07 17:00N 70°40' E 023°40'0 0.0
2017-Nov-07 16:30N 70°40' E 023°40'0 0.0
2017-Nov-07 16:00N 70°40' E 023°40'0 0.0
2017-Nov-07 15:30N 70°40' E 023°40'0 0.0
2017-Nov-07 15:00N 70°40' E 023°40'0 0.0
2017-Nov-07 14:30N 70°40' E 023°40'0 0.0
2017-Nov-07 14:00N 70°40' E 023°40'0 0.0
2017-Nov-07 13:30N 70°40' E 023°40'0 0.0
2017-Nov-07 13:00N 70°40' E 023°40'0 0.0
2017-Nov-07 12:30N 70°40' E 023°40'0 0.0
2017-Nov-07 12:00N 70°40' E 023°40'0 0.0
2017-Nov-07 11:30N 70°40' E 023°40'0 0.0
2017-Nov-07 11:00N 70°40' E 023°40'0 0.0
2017-Nov-07 10:30N 70°40' E 023°40'0 0.0
2017-Nov-07 10:00N 70°40' E 023°40'0 0.0
2017-Nov-07 09:30N 70°40' E 023°40'0 0.0
2017-Nov-07 09:00N 70°40' E 023°40'0 0.0
2017-Nov-07 08:30N 70°40' E 023°40'0 0.0
2017-Nov-07 08:00N 70°40' E 023°40'0 0.0
2017-Nov-07 07:30N 70°40' E 023°40'0 0.0
2017-Nov-07 07:00N 70°40' E 023°40'0 0.0
2017-Nov-07 06:30N 70°40' E 023°40'0 0.0
2017-Nov-07 06:00N 70°40' E 023°40'0 0.0
2017-Nov-07 05:29N 70°40' E 023°40'0 0.0
2017-Nov-07 05:00N 70°40' E 023°40'0 0.0
2017-Nov-07 04:30N 70°40' E 023°40'0 0.0
2017-Nov-07 04:00N 70°40' E 023°40'0 0.0
2017-Nov-07 03:30N 70°40' E 023°40'0 0.0
2017-Nov-07 03:00N 70°40' E 023°40'0 0.0
2017-Nov-07 02:30N 70°40' E 023°40'0 0.0
2017-Nov-07 02:00N 70°40' E 023°40'0 0.0
2017-Nov-07 01:30N 70°40' E 023°40'0 0.0
2017-Nov-07 01:00N 70°40' E 023°40'0 0.0
2017-Nov-07 00:30N 70°40' E 023°40'0 0.0
2017-Nov-07 00:00N 70°40' E 023°40'0 0.0
2017-Nov-06 23:30N 70°40' E 023°40'0 0.0
2017-Nov-06 23:00N 70°40' E 023°40'0 0.0
2017-Nov-06 22:29N 70°40' E 023°40'0 0.0
2017-Nov-06 22:00N 70°40' E 023°40'0 0.0
2017-Nov-06 21:30N 70°40' E 023°40'0 0.0
2017-Nov-06 21:00N 70°40' E 023°40'0 0.0
2017-Nov-06 20:30N 70°40' E 023°40'  

Dump ship's entire track history